Time;durP1;ratioP1;P1;durP2;ratioP2;P2;SDS_P1;SDS_P2;PMS_P1;PMS_P2;Temp;Humidity;BMP_temperature;BMP_pressure;BME280_temperature;BME280_humidity;BME280_pressure;Samples;Min_cycle;Max_cycle;Signal;HPM_P1;HPM_P2
2022/10/07 00:01:54;;;;;;;5.35;2.00;;;;;;;;;;5064077;28;20025;-82
2022/10/07 00:04:20;;;;;;;8.00;2.28;;;;;;;;;;5057114;28;20116;-82
2022/10/07 00:06:45;;;;;;;4.78;2.42;;;;;;;;;;5058573;28;20071;-84
2022/10/07 00:09:11;;;;;;;5.38;2.22;;;;;;;;;;5061930;28;20052;-83
2022/10/07 00:11:37;;;;;;;5.07;2.30;;;;;;;;;;5061129;28;20021;-83
2022/10/07 00:14:06;;;;;;;4.22;2.60;;;;;;;;;;5085510;28;20049;-83
2022/10/07 00:16:41;;;;;;;4.70;2.42;;;;;;;;;;5078423;28;20027;-83
2022/10/07 00:19:11;;;;;;;5.13;2.25;;;;;;;;;;5066943;28;20032;-84
2022/10/07 00:21:37;;;;;;;8.38;2.90;;;;;;;;;;5046021;28;20036;-82
2022/10/07 00:24:04;;;;;;;3.03;2.10;;;;;;;;;;5069923;28;20021;-81
2022/10/07 00:26:32;;;;;;;10.15;2.63;;;;;;;;;;5067369;28;20020;-82
2022/10/07 00:28:58;;;;;;;8.35;2.63;;;;;;;;;;5051984;28;20027;-81
2022/10/07 00:31:29;;;;;;;6.65;3.00;;;;;;;;;;5048335;28;20084;-83
2022/10/07 00:33:55;;;;;;;9.65;3.00;;;;;;;;;;5066209;28;20076;-82
2022/10/07 00:36:26;;;;;;;8.05;3.55;;;;;;;;;;5068190;28;20035;-80
2022/10/07 00:38:57;;;;;;;11.63;3.38;;;;;;;;;;5071702;28;20033;-83
2022/10/07 00:41:37;;;;;;;9.10;3.95;;;;;;;;;;5048775;28;20021;-83
2022/10/07 00:44:31;;;;;;;5.05;3.10;;;;;;;;;;5069713;28;20021;-82
2022/10/07 00:47:03;;;;;;;5.88;2.38;;;;;;;;;;5070894;28;20102;-81
2022/10/07 00:49:31;;;;;;;6.88;2.80;;;;;;;;;;5071365;28;20017;-83
2022/10/07 00:51:57;;;;;;;8.35;3.20;;;;;;;;;;5070857;28;20028;-82
2022/10/07 00:54:23;;;;;;;7.95;3.25;;;;;;;;;;5070213;28;20024;-81
2022/10/07 00:56:50;;;;;;;5.65;2.50;;;;;;;;;;5071219;28;20050;-83
2022/10/07 00:59:18;;;;;;;5.78;2.80;;;;;;;;;;5072369;28;20020;-83
2022/10/07 01:01:43;;;;;;;8.07;2.92;;;;;;;;;;5071378;28;20031;-79
2022/10/07 01:04:10;;;;;;;10.70;3.03;;;;;;;;;;5066644;28;20107;-83
2022/10/07 01:06:38;;;;;;;6.65;3.17;;;;;;;;;;5052914;28;20070;-83
2022/10/07 01:09:07;;;;;;;6.13;2.67;;;;;;;;;;5071078;28;20066;-82
2022/10/07 01:11:49;;;;;;;4.93;2.88;;;;;;;;;;5058586;28;20398;-82
2022/10/07 01:14:50;;;;;;;13.93;3.63;;;;;;;;;;5066364;28;20067;-84
2022/10/07 01:17:42;;;;;;;7.00;2.85;;;;;;;;;;5067610;28;20028;-80
2022/10/07 01:20:30;;;;;;;9.73;2.72;;;;;;;;;;5046313;28;20112;-81
2022/10/07 01:23:20;;;;;;;7.30;2.80;;;;;;;;;;5046806;28;20047;-81
2022/10/07 01:26:15;;;;;;;5.88;3.13;;;;;;;;;;5048623;28;20024;-82
2022/10/07 01:29:09;;;;;;;8.52;3.20;;;;;;;;;;5048535;28;20091;-82
2022/10/07 01:31:45;;;;;;;7.32;3.08;;;;;;;;;;5047614;28;20119;-83
2022/10/07 01:34:12;;;;;;;5.47;2.85;;;;;;;;;;5067711;28;20122;-83
2022/10/07 01:36:40;;;;;;;8.38;2.80;;;;;;;;;;5071093;28;20024;-83
2022/10/07 01:39:10;;;;;;;5.13;3.00;;;;;;;;;;5063575;28;20040;-83
2022/10/07 01:41:38;;;;;;;6.47;3.13;;;;;;;;;;5050325;28;20028;-79
2022/10/07 01:44:03;;;;;;;12.60;2.90;;;;;;;;;;5045264;28;20024;-81
2022/10/07 01:46:29;;;;;;;9.25;3.25;;;;;;;;;;5065159;28;20149;-83
2022/10/07 01:48:55;;;;;;;13.07;3.03;;;;;;;;;;5067769;28;20028;-83
2022/10/07 01:51:27;;;;;;;9.60;2.80;;;;;;;;;;5068025;28;20156;-79
2022/10/07 01:54:32;;;;;;;8.70;3.10;;;;;;;;;;5061723;28;20025;-83
2022/10/07 01:57:10;;;;;;;4.65;2.78;;;;;;;;;;5063371;28;20025;-84
2022/10/07 02:00:00;;;;;;;7.30;2.90;;;;;;;;;;5045470;28;20111;-83
2022/10/07 02:02:51;;;;;;;9.00;2.83;;;;;;;;;;5068264;28;20028;-84
2022/10/07 02:05:47;;;;;;;12.77;2.90;;;;;;;;;;5072949;28;20017;-80
2022/10/07 02:08:31;;;;;;;7.13;2.95;;;;;;;;;;5084579;28;20020;-79
2022/10/07 02:11:12;;;;;;;6.38;2.83;;;;;;;;;;5083092;28;20035;-79
2022/10/07 02:14:10;;;;;;;9.63;2.75;;;;;;;;;;5046873;28;20136;-83
2022/10/07 02:16:46;;;;;;;9.98;3.00;;;;;;;;;;5067449;28;20036;-79
2022/10/07 02:19:17;;;;;;;5.13;2.83;;;;;;;;;;5046943;28;20040;-84
2022/10/07 02:21:47;;;;;;;3.92;2.38;;;;;;;;;;5071781;28;20020;-84
2022/10/07 02:24:15;;;;;;;8.13;3.08;;;;;;;;;;5049597;28;20032;-81
2022/10/07 02:26:43;;;;;;;5.70;2.92;;;;;;;;;;5068004;28;20036;-83
2022/10/07 02:29:11;;;;;;;7.32;3.03;;;;;;;;;;5054995;28;20542;-84
2022/10/07 02:31:40;;;;;;;4.68;2.55;;;;;;;;;;5067048;28;20032;-83
2022/10/07 02:34:07;;;;;;;7.90;3.35;;;;;;;;;;5062434;28;20021;-81
2022/10/07 02:36:38;;;;;;;8.75;2.80;;;;;;;;;;5069156;28;20030;-83
2022/10/07 02:39:05;;;;;;;5.50;2.47;;;;;;;;;;5069396;28;20394;-82
2022/10/07 02:41:48;;;;;;;5.88;2.70;;;;;;;;;;5068064;28;20039;-82
2022/10/07 02:44:55;;;;;;;10.10;2.80;;;;;;;;;;5047780;28;20021;-83
2022/10/07 02:47:30;;;;;;;12.15;2.70;;;;;;;;;;4989086;28;20113;-84
2022/10/07 02:50:00;;;;;;;4.38;2.20;;;;;;;;;;5004945;28;20069;-84
2022/10/07 02:52:30;;;;;;;6.90;3.03;;;;;;;;;;5040811;28;20080;-84
2022/10/07 02:55:00;;;;;;;14.68;3.20;;;;;;;;;;5044809;28;20107;-82
2022/10/07 02:57:29;;;;;;;6.13;2.53;;;;;;;;;;5061967;28;20529;-83
2022/10/07 02:59:57;;;;;;;9.43;2.97;;;;;;;;;;5051955;28;20104;-83
2022/10/07 03:02:51;;;;;;;9.55;2.85;;;;;;;;;;5068028;28;20486;-84
2022/10/07 03:05:19;;;;;;;5.38;2.42;;;;;;;;;;5057014;28;20123;-84
2022/10/07 03:07:49;;;;;;;12.23;3.25;;;;;;;;;;5067443;28;20104;-78
2022/10/07 03:10:15;;;;;;;5.15;2.47;;;;;;;;;;5068335;28;20085;-83
2022/10/07 03:12:41;;;;;;;5.85;2.53;;;;;;;;;;5063886;28;20075;-83
2022/10/07 03:15:07;;;;;;;4.82;2.83;;;;;;;;;;5067152;28;20024;-79
2022/10/07 03:17:33;;;;;;;5.75;2.88;;;;;;;;;;5067085;28;20025;-83
2022/10/07 03:19:58;;;;;;;6.88;2.60;;;;;;;;;;5068144;28;20032;-82
2022/10/07 03:22:23;;;;;;;8.43;3.00;;;;;;;;;;5041991;28;20028;-82
2022/10/07 03:24:49;;;;;;;9.10;3.20;;;;;;;;;;5074604;28;20479;-83
2022/10/07 03:27:14;;;;;;;7.70;2.67;;;;;;;;;;5054381;28;20028;-82
2022/10/07 03:29:40;;;;;;;8.82;3.10;;;;;;;;;;5051897;28;20111;-84
2022/10/07 03:32:05;;;;;;;16.42;2.90;;;;;;;;;;5053614;28;20457;-83
2022/10/07 03:34:31;;;;;;;4.32;2.75;;;;;;;;;;5056119;28;20012;-82
2022/10/07 03:36:56;;;;;;;6.80;2.58;;;;;;;;;;5074796;28;20040;-83
2022/10/07 03:39:22;;;;;;;11.18;3.33;;;;;;;;;;5052402;28;20028;-83
2022/10/07 03:41:48;;;;;;;6.70;2.80;;;;;;;;;;5052433;28;20048;-81
2022/10/07 03:44:14;;;;;;;9.35;2.65;;;;;;;;;;5051669;28;20048;-83
2022/10/07 03:46:40;;;;;;;16.38;2.78;;;;;;;;;;5075734;28;20025;-82
2022/10/07 03:49:05;;;;;;;6.65;2.60;;;;;;;;;;5051521;28;20023;-80
2022/10/07 03:51:31;;;;;;;4.38;2.47;;;;;;;;;;5050358;28;20394;-81
2022/10/07 03:53:57;;;;;;;5.32;2.50;;;;;;;;;;5068396;28;20021;-83
2022/10/07 03:56:23;;;;;;;12.93;2.78;;;;;;;;;;5053324;28;20047;-83
2022/10/07 03:58:48;;;;;;;5.18;2.30;;;;;;;;;;5052243;28;20032;-83
2022/10/07 04:01:14;;;;;;;6.13;2.58;;;;;;;;;;5048188;28;20020;-82
2022/10/07 04:03:40;;;;;;;9.23;2.75;;;;;;;;;;5070998;28;20078;-81
2022/10/07 04:06:05;;;;;;;7.95;2.75;;;;;;;;;;5071037;28;20455;-83
2022/10/07 04:08:31;;;;;;;5.03;2.50;;;;;;;;;;5050237;28;20028;-81
2022/10/07 04:10:57;;;;;;;3.80;2.70;;;;;;;;;;5068297;28;20041;-83
2022/10/07 04:13:23;;;;;;;6.22;2.33;;;;;;;;;;5071412;28;20096;-82
2022/10/07 04:15:49;;;;;;;9.00;2.50;;;;;;;;;;5070426;28;20020;-82
2022/10/07 04:18:14;;;;;;;8.77;2.58;;;;;;;;;;5073153;22;20149;-80
2022/10/07 04:20:40;;;;;;;10.93;2.80;;;;;;;;;;5078919;28;20039;-79
2022/10/07 04:23:05;;;;;;;5.18;2.28;;;;;;;;;;5081996;28;20028;-80
2022/10/07 04:25:33;;;;;;;7.40;2.60;;;;;;;;;;5083473;28;20024;-80
2022/10/07 04:28:05;;;;;;;7.63;2.55;;;;;;;;;;5066234;28;20538;-79
2022/10/07 04:30:33;;;;;;;3.97;1.92;;;;;;;;;;5075438;28;20020;-81
2022/10/07 04:33:03;;;;;;;4.78;2.35;;;;;;;;;;5067710;28;20374;-79
2022/10/07 04:35:29;;;;;;;5.95;2.65;;;;;;;;;;5066039;28;20086;-81
2022/10/07 04:37:54;;;;;;;6.80;2.42;;;;;;;;;;5081264;28;20016;-80
2022/10/07 04:40:21;;;;;;;5.47;2.40;;;;;;;;;;5081389;28;20111;-81
2022/10/07 04:45:33;;;;;;;7.13;2.50;;;;;;;;;;5087281;28;20035;-81
2022/10/07 04:47:59;;;;;;;5.13;2.45;;;;;;;;;;5081686;28;20029;-80
2022/10/07 04:50:25;;;;;;;12.07;4.13;;;;;;;;;;5067974;28;20030;-80
2022/10/07 04:52:50;;;;;;;11.07;2.47;;;;;;;;;;5066352;28;20097;-79
2022/10/07 04:55:15;;;;;;;6.65;2.60;;;;;;;;;;5082615;28;20026;-81
2022/10/07 04:57:41;;;;;;;5.90;2.30;;;;;;;;;;5066809;28;20044;-81
2022/10/07 05:00:08;;;;;;;5.07;2.53;;;;;;;;;;5088596;28;20039;-81
2022/10/07 05:02:33;;;;;;;7.13;2.55;;;;;;;;;;5079048;28;20029;-79
2022/10/07 05:04:59;;;;;;;11.45;2.97;;;;;;;;;;5061574;28;20069;-78
2022/10/07 05:07:25;;;;;;;5.32;2.28;;;;;;;;;;5063159;28;20055;-81
2022/10/07 05:09:51;;;;;;;4.78;2.42;;;;;;;;;;5089601;28;20046;-81
2022/10/07 05:12:16;;;;;;;3.42;2.00;;;;;;;;;;5084090;28;20039;-81
2022/10/07 05:14:43;;;;;;;4.72;2.78;;;;;;;;;;5079769;28;20024;-80
2022/10/07 05:17:12;;;;;;;6.30;2.47;;;;;;;;;;5083807;28;20043;-81
2022/10/07 05:19:38;;;;;;;4.68;2.17;;;;;;;;;;5078598;28;20760;-80
2022/10/07 05:22:03;;;;;;;6.78;2.80;;;;;;;;;;5080422;28;20142;-79
2022/10/07 05:24:29;;;;;;;9.55;2.83;;;;;;;;;;5079170;28;20024;-78
2022/10/07 05:26:54;;;;;;;4.72;2.88;;;;;;;;;;5076047;28;20040;-81
2022/10/07 05:29:20;;;;;;;11.90;3.13;;;;;;;;;;5079878;28;20043;-77
2022/10/07 05:31:47;;;;;;;4.35;2.35;;;;;;;;;;5077444;28;20101;-77
2022/10/07 05:34:14;;;;;;;4.05;2.50;;;;;;;;;;5061878;28;20032;-77
2022/10/07 05:36:40;;;;;;;7.70;2.72;;;;;;;;;;5064674;28;20016;-79
2022/10/07 05:39:06;;;;;;;5.88;2.05;;;;;;;;;;5084190;28;20084;-81
2022/10/07 05:41:31;;;;;;;8.85;2.30;;;;;;;;;;5087396;28;20020;-80
2022/10/07 05:43:59;;;;;;;9.10;3.08;;;;;;;;;;5083671;28;20040;-80
2022/10/07 05:46:24;;;;;;;5.38;2.65;;;;;;;;;;5084664;28;20115;-79
2022/10/07 05:48:51;;;;;;;6.15;2.50;;;;;;;;;;5083067;28;20073;-78
2022/10/07 05:51:17;;;;;;;5.45;2.35;;;;;;;;;;5084617;28;20020;-78
2022/10/07 05:53:43;;;;;;;5.90;2.92;;;;;;;;;;5076335;28;20081;-79
2022/10/07 05:56:11;;;;;;;4.03;2.60;;;;;;;;;;5081598;28;20040;-77
2022/10/07 05:58:37;;;;;;;4.60;2.50;;;;;;;;;;5085537;28;20028;-79
2022/10/07 06:01:05;;;;;;;10.00;3.28;;;;;;;;;;5063856;28;20111;-77
2022/10/07 06:03:32;;;;;;;3.30;2.30;;;;;;;;;;5090651;28;20043;-78
2022/10/07 06:05:59;;;;;;;3.25;2.45;;;;;;;;;;5084858;28;20032;-79
2022/10/07 06:08:25;;;;;;;16.08;3.05;;;;;;;;;;5094962;28;20420;-79
2022/10/07 06:13:36;;;;;;;14.82;3.40;;;;;;;;;;5086750;28;20078;-79
2022/10/07 06:16:08;;;;;;;11.10;3.63;;;;;;;;;;5077604;28;20024;-80
2022/10/07 06:18:38;;;;;;;6.72;3.30;;;;;;;;;;5069203;28;20073;-77
2022/10/07 06:21:04;;;;;;;7.75;3.10;;;;;;;;;;5087393;28;20028;-79
2022/10/07 06:23:31;;;;;;;7.80;3.20;;;;;;;;;;5092711;28;20023;-79
2022/10/07 06:26:04;;;;;;;9.23;3.25;;;;;;;;;;5077012;28;20016;-79
2022/10/07 06:28:40;;;;;;;11.85;3.13;;;;;;;;;;5096093;28;20020;-80
2022/10/07 06:31:13;;;;;;;3.55;2.60;;;;;;;;;;5073387;28;20019;-78
2022/10/07 06:33:38;;;;;;;10.77;2.63;;;;;;;;;;5070247;28;20068;-79
2022/10/07 06:36:11;;;;;;;9.98;2.70;;;;;;;;;;5084723;28;20040;-79
2022/10/07 06:38:37;;;;;;;6.68;2.85;;;;;;;;;;5091207;28;20024;-78
2022/10/07 06:41:04;;;;;;;7.93;3.22;;;;;;;;;;5084239;28;20055;-79
2022/10/07 06:43:31;;;;;;;12.30;3.00;;;;;;;;;;5080899;28;20096;-79
2022/10/07 06:45:58;;;;;;;5.63;2.80;;;;;;;;;;5093585;28;20196;-80
2022/10/07 06:48:24;;;;;;;5.65;2.67;;;;;;;;;;5089239;28;20053;-79
2022/10/07 06:50:50;;;;;;;7.93;2.75;;;;;;;;;;5092615;28;20024;-79
2022/10/07 06:53:16;;;;;;;5.57;2.63;;;;;;;;;;5090751;28;20031;-80
2022/10/07 06:55:42;;;;;;;7.85;2.88;;;;;;;;;;5093706;28;20047;-79
2022/10/07 06:58:08;;;;;;;6.72;3.05;;;;;;;;;;5064975;28;20020;-78
2022/10/07 07:00:34;;;;;;;7.55;3.30;;;;;;;;;;5059546;28;20370;-78
2022/10/07 07:03:02;;;;;;;5.75;2.72;;;;;;;;;;5092408;28;20612;-79
2022/10/07 07:05:36;;;;;;;5.18;2.78;;;;;;;;;;5085208;28;20020;-80
2022/10/07 07:08:01;;;;;;;6.28;2.85;;;;;;;;;;5085058;28;20047;-80
2022/10/07 07:10:27;;;;;;;6.60;3.38;;;;;;;;;;5090747;28;20053;-80
2022/10/07 07:12:53;;;;;;;10.35;2.67;;;;;;;;;;5086745;28;20058;-80
2022/10/07 07:15:18;;;;;;;13.93;3.22;;;;;;;;;;5089804;28;20449;-80
2022/10/07 07:17:43;;;;;;;16.50;3.42;;;;;;;;;;5092291;28;20038;-81
2022/10/07 07:20:09;;;;;;;8.20;3.20;;;;;;;;;;5082412;28;20478;-79
2022/10/07 07:22:35;;;;;;;9.88;2.72;;;;;;;;;;5069175;28;20478;-80
2022/10/07 07:25:00;;;;;;;16.83;3.67;;;;;;;;;;5091094;28;20074;-80
2022/10/07 07:27:25;;;;;;;7.43;3.55;;;;;;;;;;5093838;28;20040;-81
2022/10/07 07:29:51;;;;;;;14.30;3.55;;;;;;;;;;5066744;28;20063;-80
2022/10/07 07:32:16;;;;;;;9.10;3.08;;;;;;;;;;5079864;28;20535;-81
2022/10/07 07:34:41;;;;;;;7.30;3.58;;;;;;;;;;5064214;28;20024;-81
2022/10/07 07:37:07;;;;;;;10.98;3.35;;;;;;;;;;5093662;28;20028;-81
2022/10/07 07:39:32;;;;;;;11.23;3.63;;;;;;;;;;5070227;28;20813;-80
2022/10/07 07:42:27;;;;;;;12.65;3.25;;;;;;;;;;5089388;28;20107;-79
2022/10/07 07:44:59;;;;;;;6.13;2.80;;;;;;;;;;5064875;28;20037;-80
2022/10/07 07:47:26;;;;;;;10.20;3.67;;;;;;;;;;5074878;28;20493;-80
2022/10/07 07:49:52;;;;;;;11.75;3.70;;;;;;;;;;5093849;28;20022;-81
2022/10/07 07:52:17;;;;;;;11.43;3.20;;;;;;;;;;5082909;28;20028;-81
2022/10/07 07:54:43;;;;;;;7.40;3.30;;;;;;;;;;5087547;28;20032;-82
2022/10/07 07:57:31;;;;;;;6.80;3.22;;;;;;;;;;5088470;28;20412;-81
2022/10/07 07:59:57;;;;;;;10.88;3.70;;;;;;;;;;5070717;28;20031;-80
2022/10/07 08:02:22;;;;;;;7.05;3.20;;;;;;;;;;5097420;28;20024;-80
2022/10/07 08:04:48;;;;;;;12.88;3.70;;;;;;;;;;5089654;28;20020;-80
2022/10/07 08:07:14;;;;;;;8.13;3.80;;;;;;;;;;5100504;28;20027;-80
2022/10/07 08:09:40;;;;;;;13.07;3.78;;;;;;;;;;5091000;28;20040;-78
2022/10/07 08:12:06;;;;;;;10.63;3.92;;;;;;;;;;5090991;28;20016;-80
2022/10/07 08:14:31;;;;;;;4.88;3.30;;;;;;;;;;5096536;28;20143;-81
2022/10/07 08:16:58;;;;;;;14.18;3.85;;;;;;;;;;5089925;28;20027;-81
2022/10/07 08:19:29;;;;;;;8.10;3.75;;;;;;;;;;5089792;28;20180;-81
2022/10/07 08:21:56;;;;;;;6.57;3.70;;;;;;;;;;5097039;28;20024;-81
2022/10/07 08:24:24;;;;;;;6.88;3.00;;;;;;;;;;5088975;28;20028;-80
2022/10/07 08:26:52;;;;;;;9.43;4.00;;;;;;;;;;5080433;28;20047;-77
2022/10/07 08:29:17;;;;;;;12.10;3.58;;;;;;;;;;5087948;28;20094;-82
2022/10/07 08:31:43;;;;;;;15.82;3.85;;;;;;;;;;5105303;28;20023;-81
2022/10/07 08:34:09;;;;;;;11.68;3.70;;;;;;;;;;5101494;28;20024;-78
2022/10/07 08:36:35;;;;;;;7.28;3.30;;;;;;;;;;5096825;28;20024;-80
2022/10/07 08:39:03;;;;;;;8.27;2.92;;;;;;;;;;5109340;28;20013;-80
2022/10/07 08:41:42;;;;;;;10.40;3.22;;;;;;;;;;5099923;28;20493;-81
2022/10/07 08:44:17;;;;;;;9.32;3.20;;;;;;;;;;5106352;28;20036;-79
2022/10/07 08:46:49;;;;;;;6.95;3.63;;;;;;;;;;5097790;28;20024;-79
2022/10/07 08:49:18;;;;;;;8.60;3.15;;;;;;;;;;5095846;28;20103;-83
2022/10/07 08:51:47;;;;;;;13.18;2.45;;;;;;;;;;5088284;28;20027;-81
2022/10/07 08:54:15;;;;;;;6.63;2.35;;;;;;;;;;5064791;28;20032;-81
2022/10/07 08:56:42;;;;;;;5.68;2.22;;;;;;;;;;5069696;28;20017;-81
2022/10/07 08:59:22;;;;;;;6.60;2.17;;;;;;;;;;5101871;28;20069;-80
2022/10/07 09:02:11;;;;;;;7.70;1.83;;;;;;;;;;5095598;28;20042;-81
2022/10/07 09:04:58;;;;;;;5.72;2.15;;;;;;;;;;5074056;28;20032;-81
2022/10/07 09:07:34;;;;;;;6.82;2.72;;;;;;;;;;5077427;28;20028;-82
2022/10/07 09:10:33;;;;;;;10.32;2.50;;;;;;;;;;5080512;28;20651;-82
2022/10/07 09:13:04;;;;;;;4.10;2.10;;;;;;;;;;5094329;28;20091;-80
2022/10/07 09:15:59;;;;;;;2.20;1.90;;;;;;;;;;5089339;28;20130;-81
2022/10/07 09:18:34;;;;;;;5.35;1.98;;;;;;;;;;5094799;28;20024;-81
2022/10/07 09:21:42;;;;;;;2.72;1.70;;;;;;;;;;5081388;28;20501;-82
2022/10/07 09:24:25;;;;;;;4.68;2.10;;;;;;;;;;5080910;28;20059;-81
2022/10/07 09:26:56;;;;;;;4.68;2.53;;;;;;;;;;5098286;28;20046;-81
2022/10/07 09:29:41;;;;;;;9.07;2.17;;;;;;;;;;5102542;28;20016;-80
2022/10/07 09:32:16;;;;;;;3.85;2.05;;;;;;;;;;5067477;28;20017;-81
2022/10/07 09:34:42;;;;;;;3.80;1.70;;;;;;;;;;5074270;28;20017;-82
2022/10/07 09:37:20;;;;;;;13.52;2.10;;;;;;;;;;5097465;28;20694;-81
2022/10/07 09:39:51;;;;;;;5.28;2.47;;;;;;;;;;5072827;28;20032;-81
2022/10/07 09:42:19;;;;;;;4.55;2.08;;;;;;;;;;5074318;28;20166;-79
2022/10/07 09:44:52;;;;;;;5.25;2.08;;;;;;;;;;5091977;28;20105;-80
2022/10/07 09:47:22;;;;;;;4.05;2.10;;;;;;;;;;5082393;28;20016;-80
2022/10/07 09:49:51;;;;;;;6.03;2.42;;;;;;;;;;5077987;28;20028;-82
2022/10/07 09:52:25;;;;;;;3.67;2.10;;;;;;;;;;5095051;28;20061;-81
2022/10/07 09:54:52;;;;;;;3.00;2.20;;;;;;;;;;5091627;28;20077;-81
2022/10/07 09:57:28;;;;;;;4.78;2.00;;;;;;;;;;5090180;28;20024;-81
2022/10/07 10:00:16;;;;;;;5.05;2.33;;;;;;;;;;5080676;28;20039;-81
2022/10/07 10:02:47;;;;;;;9.25;2.83;;;;;;;;;;5066930;28;20518;-80
2022/10/07 10:05:22;;;;;;;7.20;2.97;;;;;;;;;;5093815;28;20054;-80
2022/10/07 10:07:52;;;;;;;10.07;2.20;;;;;;;;;;5095371;28;20028;-80
2022/10/07 10:10:23;;;;;;;7.10;2.30;;;;;;;;;;5093080;28;20028;-80
2022/10/07 10:12:51;;;;;;;4.35;2.33;;;;;;;;;;5072416;28;20036;-79
2022/10/07 10:15:35;;;;;;;5.85;2.20;;;;;;;;;;5096169;28;20073;-80
2022/10/07 10:18:02;;;;;;;3.20;2.03;;;;;;;;;;5090393;22;20035;-82
2022/10/07 10:20:35;;;;;;;4.18;2.15;;;;;;;;;;5040184;28;20491;-83
2022/10/07 10:23:22;;;;;;;3.55;1.83;;;;;;;;;;5017226;28;20021;-83
2022/10/07 10:26:25;;;;;;;4.60;2.08;;;;;;;;;;5012036;28;20022;-81
2022/10/07 10:29:11;;;;;;;4.07;2.30;;;;;;;;;;5044944;28;20036;-84
2022/10/07 10:32:01;;;;;;;5.30;2.33;;;;;;;;;;5064719;28;20580;-84
2022/10/07 10:34:29;;;;;;;3.72;2.00;;;;;;;;;;5056732;28;20017;-83
2022/10/07 10:37:25;;;;;;;3.08;2.22;;;;;;;;;;5039420;28;20077;-83
2022/10/07 10:40:06;;;;;;;3.05;2.30;;;;;;;;;;5056799;28;20021;-84
2022/10/07 10:42:52;;;;;;;6.88;2.70;;;;;;;;;;5043208;28;20445;-83
2022/10/07 10:45:33;;;;;;;4.07;2.25;;;;;;;;;;5046726;28;20017;-88
2022/10/07 10:48:21;;;;;;;5.70;2.45;;;;;;;;;;5059865;28;20029;-84
2022/10/07 10:51:09;;;;;;;5.15;2.33;;;;;;;;;;5053565;28;20043;-84
2022/10/07 10:53:57;;;;;;;3.65;2.28;;;;;;;;;;5058021;28;20212;-81
2022/10/07 10:56:32;;;;;;;5.35;2.25;;;;;;;;;;5033516;28;20021;-81
2022/10/07 10:59:41;;;;;;;3.90;2.25;;;;;;;;;;5060264;28;20048;-82
2022/10/07 11:02:32;;;;;;;4.38;2.53;;;;;;;;;;5047656;28;20387;-82
2022/10/07 11:05:21;;;;;;;11.45;2.75;;;;;;;;;;5057736;28;20026;-82
2022/10/07 11:07:58;;;;;;;3.95;2.47;;;;;;;;;;5067983;28;20056;-81
2022/10/07 11:10:25;;;;;;;7.60;2.63;;;;;;;;;;5052703;28;20026;-80
2022/10/07 11:13:00;;;;;;;4.88;2.40;;;;;;;;;;5070042;28;20024;-79
2022/10/07 11:15:38;;;;;;;6.55;2.63;;;;;;;;;;5063875;28;20029;-82
2022/10/07 11:18:11;;;;;;;3.53;2.75;;;;;;;;;;5055602;28;20036;-84
2022/10/07 11:20:47;;;;;;;7.20;2.63;;;;;;;;;;5071461;28;20036;-80
2022/10/07 11:23:22;;;;;;;5.20;2.90;;;;;;;;;;5036187;28;20037;-82
2022/10/07 11:26:04;;;;;;;5.10;3.28;;;;;;;;;;5045582;28;20017;-81
2022/10/07 11:28:33;;;;;;;8.85;2.70;;;;;;;;;;5055145;28;20041;-82
2022/10/07 11:31:09;;;;;;;5.60;2.40;;;;;;;;;;5038389;28;20036;-81
2022/10/07 11:33:43;;;;;;;5.38;3.10;;;;;;;;;;5072213;28;20085;-82
2022/10/07 11:36:21;;;;;;;8.95;3.45;;;;;;;;;;5053952;28;20029;-82
2022/10/07 11:38:49;;;;;;;5.93;2.20;;;;;;;;;;5072633;28;20021;-83
2022/10/07 11:41:28;;;;;;;5.63;2.80;;;;;;;;;;5061002;28;20008;-81
2022/10/07 11:43:57;;;;;;;4.97;2.33;;;;;;;;;;5062765;28;20032;-82
2022/10/07 11:46:35;;;;;;;5.60;2.70;;;;;;;;;;5066939;28;20016;-83
2022/10/07 11:49:22;;;;;;;4.47;2.58;;;;;;;;;;5074358;28;20017;-83
2022/10/07 11:52:00;;;;;;;7.93;2.70;;;;;;;;;;5074470;28;20024;-82
2022/10/07 11:54:29;;;;;;;5.35;2.38;;;;;;;;;;5060038;28;20017;-82
2022/10/07 11:56:59;;;;;;;6.97;3.40;;;;;;;;;;5039583;28;20032;-82
2022/10/07 11:59:45;;;;;;;7.85;3.13;;;;;;;;;;5044444;28;20098;-84
2022/10/07 12:02:29;;;;;;;4.97;2.60;;;;;;;;;;5059625;28;20020;-85
2022/10/07 12:04:58;;;;;;;10.50;4.15;;;;;;;;;;5040030;28;20028;-83
2022/10/07 12:07:36;;;;;;;5.45;2.45;;;;;;;;;;5043492;28;20021;-84
2022/10/07 12:10:04;;;;;;;7.38;2.95;;;;;;;;;;5044087;28;20024;-82
2022/10/07 12:12:45;;;;;;;8.88;3.03;;;;;;;;;;5070888;28;20031;-85
2022/10/07 12:15:23;;;;;;;6.70;2.90;;;;;;;;;;5052031;28;20021;-81
2022/10/07 12:18:18;;;;;;;5.47;2.60;;;;;;;;;;5068982;28;20016;-83
2022/10/07 12:20:50;;;;;;;4.82;2.58;;;;;;;;;;5044164;28;20360;-82
2022/10/07 12:23:19;;;;;;;6.38;3.00;;;;;;;;;;5044779;28;20033;-83
2022/10/07 12:25:52;;;;;;;4.05;2.80;;;;;;;;;;5045048;28;20171;-82
2022/10/07 12:28:22;;;;;;;6.15;3.05;;;;;;;;;;5046404;28;20017;-83
2022/10/07 12:30:58;;;;;;;4.60;3.10;;;;;;;;;;5060234;28;20078;-83
2022/10/07 12:33:39;;;;;;;6.90;2.97;;;;;;;;;;5040343;28;20398;-83
2022/10/07 12:36:20;;;;;;;11.63;3.42;;;;;;;;;;5050254;28;20053;-85
2022/10/07 12:39:00;;;;;;;8.43;2.78;;;;;;;;;;5054133;28;20021;-83
2022/10/07 12:41:38;;;;;;;6.32;3.30;;;;;;;;;;5054747;28;20032;-81
2022/10/07 12:44:26;;;;;;;5.63;2.90;;;;;;;;;;5057731;28;20035;-83
2022/10/07 12:46:55;;;;;;;4.15;2.85;;;;;;;;;;5065864;28;20052;-82
2022/10/07 12:49:41;;;;;;;4.45;2.80;;;;;;;;;;5077133;28;20047;-82
2022/10/07 12:52:11;;;;;;;7.43;2.50;;;;;;;;;;5063761;28;20009;-80
2022/10/07 12:55:01;;;;;;;5.50;2.88;;;;;;;;;;5064220;28;20079;-82
2022/10/07 12:57:34;;;;;;;4.53;2.80;;;;;;;;;;5042815;28;20055;-83
2022/10/07 13:00:11;;;;;;;9.98;2.85;;;;;;;;;;5058824;28;20032;-83
2022/10/07 13:02:58;;;;;;;6.22;2.60;;;;;;;;;;5055798;28;20100;-82
2022/10/07 13:05:29;;;;;;;10.68;2.80;;;;;;;;;;5059783;28;20017;-82
2022/10/07 13:08:13;;;;;;;9.38;3.20;;;;;;;;;;5055873;28;20499;-82
2022/10/07 13:11:20;;;;;;;5.57;3.47;;;;;;;;;;5051488;28;20503;-81
2022/10/07 13:14:08;;;;;;;6.55;2.95;;;;;;;;;;5056334;28;20042;-82
2022/10/07 13:17:01;;;;;;;5.65;2.70;;;;;;;;;;5030721;28;20054;-82
2022/10/07 13:19:37;;;;;;;6.53;3.20;;;;;;;;;;5047688;28;20108;-82
2022/10/07 13:22:06;;;;;;;8.75;3.08;;;;;;;;;;5034881;28;20025;-83
2022/10/07 13:24:31;;;;;;;5.10;3.10;;;;;;;;;;5038950;28;20052;-82
2022/10/07 13:26:58;;;;;;;4.45;2.80;;;;;;;;;;5021531;28;20033;-86
2022/10/07 13:29:27;;;;;;;4.22;2.83;;;;;;;;;;5022094;28;20124;-83
2022/10/07 13:32:05;;;;;;;4.75;2.80;;;;;;;;;;5036272;28;20089;-83
2022/10/07 13:34:31;;;;;;;6.28;3.00;;;;;;;;;;5038807;28;20021;-82
2022/10/07 13:36:57;;;;;;;6.18;3.30;;;;;;;;;;5020293;28;20113;-82
2022/10/07 13:39:22;;;;;;;4.15;3.10;;;;;;;;;;5013620;28;20491;-82
2022/10/07 13:41:57;;;;;;;4.22;3.03;;;;;;;;;;5018112;28;20025;-82
2022/10/07 13:44:25;;;;;;;4.00;2.60;;;;;;;;;;5019525;28;20105;-84
2022/10/07 13:46:55;;;;;;;6.78;3.33;;;;;;;;;;5016093;28;20571;-84
2022/10/07 13:49:29;;;;;;;7.10;3.30;;;;;;;;;;5014982;28;20026;-83
2022/10/07 13:51:58;;;;;;;10.15;2.92;;;;;;;;;;5041713;28;20322;-82
2022/10/07 13:54:29;;;;;;;3.67;2.60;;;;;;;;;;5038614;28;20403;-83
2022/10/07 13:56:55;;;;;;;6.50;3.08;;;;;;;;;;5042525;28;20127;-82
2022/10/07 13:59:21;;;;;;;4.90;2.58;;;;;;;;;;5022040;28;20447;-84
2022/10/07 14:01:51;;;;;;;8.40;2.70;;;;;;;;;;5040823;28;20060;-84
2022/10/07 14:04:19;;;;;;;4.43;2.95;;;;;;;;;;5018933;28;20026;-85
2022/10/07 14:06:50;;;;;;;3.42;2.67;;;;;;;;;;5031924;28;20029;-84
2022/10/07 14:09:31;;;;;;;6.45;2.63;;;;;;;;;;5043555;28;20044;-84
2022/10/07 14:12:07;;;;;;;6.25;2.78;;;;;;;;;;5039510;28;20038;-84
2022/10/07 14:14:36;;;;;;;4.95;2.88;;;;;;;;;;5040366;28;20013;-84
2022/10/07 14:17:08;;;;;;;7.15;3.10;;;;;;;;;;5016518;28;20034;-81
2022/10/07 14:19:33;;;;;;;5.95;2.92;;;;;;;;;;5037770;28;20038;-80
2022/10/07 14:22:12;;;;;;;8.73;2.83;;;;;;;;;;5041748;28;20040;-81
2022/10/07 14:24:38;;;;;;;3.63;2.70;;;;;;;;;;5038058;28;20352;-83
2022/10/07 14:27:03;;;;;;;4.70;3.00;;;;;;;;;;5031112;28;20452;-82
2022/10/07 14:29:28;;;;;;;5.25;2.75;;;;;;;;;;5039544;28;20045;-83
2022/10/07 14:35:18;;;;;;;13.80;3.20;;;;;;;;;;5033742;28;20031;-82
2022/10/07 14:37:44;;;;;;;9.43;3.00;;;;;;;;;;5039176;28;20017;-83
2022/10/07 14:40:21;;;;;;;6.28;2.90;;;;;;;;;;5024421;28;20030;-80
2022/10/07 14:42:47;;;;;;;7.40;3.20;;;;;;;;;;5031597;28;20021;-83
2022/10/07 14:45:16;;;;;;;4.30;3.17;;;;;;;;;;5027906;28;20113;-83
2022/10/07 14:47:43;;;;;;;5.72;2.70;;;;;;;;;;5018162;28;20029;-82
2022/10/07 14:50:11;;;;;;;5.05;2.78;;;;;;;;;;5036670;28;20034;-82
2022/10/07 14:52:45;;;;;;;5.28;2.47;;;;;;;;;;5029461;28;20057;-82
2022/10/07 14:55:17;;;;;;;6.15;2.90;;;;;;;;;;5032261;28;20029;-81
2022/10/07 14:57:43;;;;;;;;;;;;;;;;;;5037647;28;20045;-83
2022/10/07 15:00:17;;;;;;;5.78;2.80;;;;;;;;;;5036697;28;19944;-82
2022/10/07 15:02:43;;;;;;;6.18;2.80;;;;;;;;;;5001897;28;20057;-82
2022/10/07 15:05:08;;;;;;;5.88;2.80;;;;;;;;;;5016844;28;20073;-82
2022/10/07 15:07:34;;;;;;;5.45;2.58;;;;;;;;;;5009436;28;20048;-82
2022/10/07 15:09:59;;;;;;;8.23;2.72;;;;;;;;;;5027552;28;21496;-81
2022/10/07 15:12:26;;;;;;;6.85;2.42;;;;;;;;;;5008888;28;20033;-82
2022/10/07 15:14:52;;;;;;;4.55;2.40;;;;;;;;;;5026060;28;20679;-82
2022/10/07 15:17:17;;;;;;;7.18;2.63;;;;;;;;;;5010030;28;20026;-82
2022/10/07 15:19:42;;;;;;;3.60;2.70;;;;;;;;;;5026958;28;20523;-81